Karin S — V2BM6 — position and weather

sailwx.info

Track history (hours):
 
Tides and Currents Weather Stations Pressure Air Temp Water Temp Dewpoint Dewpoint Depression Visibility Wind Speed Wind Dir Waves Ship Positions

Karin S

Last reported at 2015-Jul-26 00:11 UTC. Time now 2015-Jul-31 17:27 UTC.
Position N 40°19' E 003°12'.

Length 148 m; draft 8.4 m.

Type: Cargo ship. MMSI: 304871000.

Date/timePositionNaut miles runAvg speedWind from/ knotsBaromVisibWave heightAir tempDewpointWater temp
2015-Jul-26 00:11N 40°19' E 003°12'911.4
2015-Jul-25 23:24N 40°26' E 003°05'1011.3
2015-Jul-25 22:33N 40°33' E 002°57'1111.0
2015-Jul-25 21:30N 40°42' E 002°48'1010.8
2015-Jul-25 20:33N 40°51' E 002°39'35 2.6
2015-Jul-25 07:03N 40°57' E 001°54'610.6
2015-Jul-25 06:29N 40°51' E 001°50'1010.4
2015-Jul-25 05:33N 40°43' E 001°43'1010.4
2015-Jul-25 04:33N 40°34' E 001°35'1110.9
2015-Jul-25 03:33N 40°25' E 001°28'1111.0
2015-Jul-25 02:33N 40°16' E 001°20'1211.2
2015-Jul-25 01:31N 40°06' E 001°12'1111.1
2015-Jul-25 00:33N 39°57' E 001°04'1110.9
2015-Jul-24 23:33N 39°48' E 000°56'1110.5
2015-Jul-24 22:33N 39°43' E 000°44'1111.0
2015-Jul-24 21:33N 39°39' E 000°31'1211.6
2015-Jul-24 20:33N 39°35' E 000°17'1211.7
2015-Jul-24 19:33N 39°31' E 000°03'1111.4
2015-Jul-24 18:33N 39°27' W 000°11'6 6.3
2015-Jul-24 17:33N 39°26' W 000°19'0 0.0
2015-Jul-24 16:33N 39°26' W 000°19'0 0.0
2015-Jul-24 15:33N 39°26' W 000°19'0 0.0
2015-Jul-24 14:33N 39°26' W 000°19'0 0.0
2015-Jul-24 13:33N 39°26' W 000°19'0 0.0
2015-Jul-24 12:33N 39°26' W 000°19'0 0.0
2015-Jul-24 11:31N 39°26' W 000°19'0 0.3
2015-Jul-24 10:33N 39°26' W 000°19'0 0.1
2015-Jul-24 09:33N 39°26' W 000°19'0 0.0
2015-Jul-24 08:33N 39°26' W 000°19'0 0.0
2015-Jul-24 07:27N 39°26' W 000°19'0 0.0
2015-Jul-24 06:28N 39°26' W 000°19'0 0.0
2015-Jul-24 02:32N 39°26' W 000°19'0 0.0
2015-Jul-24 01:33N 39°26' W 000°19'0 0.0
2015-Jul-24 00:25N 39°26' W 000°19'0 0.0
2015-Jul-23 23:31N 39°26' W 000°19'0 0.0
2015-Jul-23 22:31N 39°26' W 000°19'0 0.0
2015-Jul-23 21:31N 39°26' W 000°19'0 0.0
2015-Jul-23 20:31N 39°26' W 000°19'0 0.0
2015-Jul-23 19:31N 39°26' W 000°19'0 0.0
2015-Jul-23 18:31N 39°26' W 000°19'0 0.0
2015-Jul-23 17:25N 39°26' W 000°19'0 0.0
2015-Jul-23 16:31N 39°26' W 000°19'0 0.0
2015-Jul-23 15:22N 39°26' W 000°19'0 0.0
2015-Jul-23 14:33N 39°26' W 000°19'0 0.0
2015-Jul-23 13:33N 39°26' W 000°19'0 0.0
2015-Jul-23 12:32N 39°26' W 000°19'0 0.0
2015-Jul-23 11:30N 39°26' W 000°19'0 0.0
2015-Jul-23 10:33N 39°26' W 000°19'0 0.0
2015-Jul-23 09:32N 39°26' W 000°19'0 0.0
2015-Jul-23 08:32N 39°26' W 000°19'0 0.0
2015-Jul-23 07:26N 39°26' W 000°19'0 0.0
2015-Jul-23 06:32N 39°26' W 000°19'0 0.0
2015-Jul-23 05:24N 39°26' W 000°19'0 0.0
2015-Jul-23 04:32N 39°26' W 000°19'3 3.3
2015-Jul-23 03:33N 39°24' W 000°17'0 0.3
2015-Jul-23 02:33N 39°23' W 000°17'0 0.2
2015-Jul-23 01:31N 39°23' W 000°17'0 0.1
2015-Jul-23 00:31N 39°23' W 000°17'0 0.1
2015-Jul-22 23:31N 39°23' W 000°17'0 0.1
2015-Jul-22 22:31N 39°23' W 000°17'0 0.0
2015-Jul-22 21:31N 39°23' W 000°17'0 0.0
2015-Jul-22 20:31N 39°23' W 000°17'0 0.1
2015-Jul-22 19:28N 39°23' W 000°17'2 1.7
2015-Jul-22 18:27N 39°23' W 000°15'4012.5
2015-Jul-22 15:15N 38°52' E 000°18'1013.0
2015-Jul-22 14:29N 38°44' E 000°25'1212.3
2015-Jul-22 13:33N 38°33' E 000°24'1313.2
2015-Jul-22 12:33N 38°20' E 000°20'1312.7
2015-Jul-22 11:33N 38°08' E 000°16'1312.6
2015-Jul-22 10:31N 37°55' E 000°12'1212.7
2015-Jul-22 09:33N 37°43' E 000°08'2912.4
2015-Jul-22 07:13N 37°15' W 000°02'912.5
2015-Jul-22 06:31N 37°07' W 000°04'1212.5
2015-Jul-22 05:33N 36°55' W 000°08'1312.6
2015-Jul-22 04:33N 36°43' W 000°12'1313.0
2015-Jul-22 03:33N 36°30' W 000°16'1712.8
2015-Jul-22 02:15N 36°14' W 000°21'913.5
2015-Jul-22 01:33N 36°05' W 000°24'1413.2
2015-Jul-22 00:30N 35°53' W 000°33'10 5.1
2015-Jul-21 22:30N 35°43' W 000°37'1 0.4
2015-Jul-21 20:17N 35°43' W 000°38'0 0.0
2015-Jul-21 19:29N 35°43' W 000°38'0 0.0
2015-Jul-21 18:29N 35°43' W 000°38'0 0.0
2015-Jul-21 17:29N 35°43' W 000°38'0 0.0
2015-Jul-21 16:17N 35°43' W 000°38'0 0.0
2015-Jul-21 15:31N 35°43' W 000°38'0 0.0
2015-Jul-21 14:29N 35°43' W 000°38'0 0.0
2015-Jul-21 13:29N 35°43' W 000°38'0 0.0
2015-Jul-21 12:29N 35°43' W 000°38'0 0.0
2015-Jul-21 11:31N 35°43' W 000°38'0 0.0
2015-Jul-21 10:25N 35°43' W 000°38'0 0.0
2015-Jul-21 08:13N 35°43' W 000°38'0 0.0
2015-Jul-21 07:29N 35°43' W 000°38'0 0.0
2015-Jul-21 05:31N 35°43' W 000°38'0 0.0
2015-Jul-20 17:05N 35°43' W 000°38'0 0.0
2015-Jul-20 15:11N 35°43' W 000°38'0 0.0
2015-Jul-20 14:23N 35°43' W 000°38'0 0.0
2015-Jul-20 13:22N 35°43' W 000°38'0 0.0
2015-Jul-20 12:28N 35°43' W 000°38'0 0.0
2015-Jul-20 11:28N 35°43' W 000°38'0 0.0
2015-Jul-20 10:23N 35°43' W 000°38'0 0.0
2015-Jul-20 09:23N 35°43' W 000°38'0 0.0
2015-Jul-20 08:29N 35°43' W 000°38'0 0.0
2015-Jul-20 07:13N 35°43' W 000°38'0 0.0
2015-Jul-19 21:10N 35°43' W 000°38'0 0.0
2015-Jul-19 20:25N 35°43' W 000°38'0 0.0
2015-Jul-19 19:29N 35°43' W 000°38'0 0.0
2015-Jul-19 17:23N 35°43' W 000°38'0 0.0
2015-Jul-19 16:23N 35°43' W 000°38'0 0.0
2015-Jul-19 15:29N 35°43' W 000°38'0 0.0
2015-Jul-19 14:31N 35°43' W 000°38'0 0.0
2015-Jul-19 13:23N 35°43' W 000°38'0 0.0
2015-Jul-19 12:29N 35°43' W 000°38'0 0.0
2015-Jul-19 11:28N 35°43' W 000°38'0 0.0
2015-Jul-19 10:25N 35°43' W 000°38'0 0.0
2015-Jul-19 08:11N 35°43' W 000°38'0 0.0
2015-Jul-19 07:11N 35°43' W 000°38'0 0.0
2015-Jul-19 06:23N 35°43' W 000°38'0 0.0
2015-Jul-19 05:29N 35°43' W 000°38'0 0.0
2015-Jul-19 00:17N 35°43' W 000°38'0 0.0
2015-Jul-18 18:33N 35°43' W 000°38'0 0.0
2015-Jul-18 10:14N 35°43' W 000°38'0 0.0
2015-Jul-18 08:32N 35°43' W 000°38'0 0.0
2015-Jul-18 07:20N 35°43' W 000°38'0 0.0
2015-Jul-18 06:32N 35°43' W 000°38'0 0.0
2015-Jul-18 04:20N 35°43' W 000°38'0 0.0
2015-Jul-18 03:31N 35°43' W 000°38'0 0.0
2015-Jul-18 00:07N 35°43' W 000°38'0 0.0
2015-Jul-17 21:31N 35°43' W 000°38'0 0.0
2015-Jul-17 19:23N 35°43' W 000°38'0 0.0
2015-Jul-17 18:31N 35°43' W 000°38'0 0.0
2015-Jul-17 16:31N 35°43' W 000°38'0 0.0
2015-Jul-17 15:28N 35°43' W 000°38'0 0.0
2015-Jul-17 14:22N 35°43' W 000°38'0 0.0
2015-Jul-17 13:31N 35°43' W 000°38'0 0.0
2015-Jul-17 12:28N 35°43' W 000°38'0 0.0
2015-Jul-17 11:31N 35°43' W 000°38'0 0.0
2015-Jul-16 14:31N 35°43' W 000°38'0 0.0
2015-Jul-16 13:13N 35°43' W 000°38'0 0.0
2015-Jul-16 12:31N 35°43' W 000°38'0 0.0
2015-Jul-16 08:21N 35°43' W 000°38'0 0.0
2015-Jul-16 06:29N 35°43' W 000°38'0 0.0
2015-Jul-16 05:29N 35°43' W 000°38'0 0.0
2015-Jul-16 04:11N 35°43' W 000°38'0 0.0
2015-Jul-16 03:28N 35°43' W 000°38'0 0.0
2015-Jul-16 02:22N 35°43' W 000°38'  
Track history (hours):
 
Tides and Currents Weather Stations Pressure Air Temp Water Temp Dewpoint Dewpoint Depression Visibility Wind Speed Wind Dir Waves Ship Positions

Karin S

Last reported at 2015-Jul-26 00:11 UTC. Time now 2015-Jul-31 17:27 UTC.
Position N 40°19' E 003°12'.

Length 148 m; draft 8.4 m.

Type: Cargo ship. MMSI: 304871000.

Date/timePositionNaut miles runAvg speedWind from/ knotsBaromVisibWave heightAir tempDewpointWater temp
2015-Jul-26 00:11N 40°19' E 003°12'911.4
2015-Jul-25 23:24N 40°26' E 003°05'1011.3
2015-Jul-25 22:33N 40°33' E 002°57'1111.0
2015-Jul-25 21:30N 40°42' E 002°48'1010.8
2015-Jul-25 20:33N 40°51' E 002°39'35 2.6
2015-Jul-25 07:03N 40°57' E 001°54'610.6
2015-Jul-25 06:29N 40°51' E 001°50'1010.4
2015-Jul-25 05:33N 40°43' E 001°43'1010.4
2015-Jul-25 04:33N 40°34' E 001°35'1110.9
2015-Jul-25 03:33N 40°25' E 001°28'1111.0
2015-Jul-25 02:33N 40°16' E 001°20'1211.2
2015-Jul-25 01:31N 40°06' E 001°12'1111.1
2015-Jul-25 00:33N 39°57' E 001°04'1110.9
2015-Jul-24 23:33N 39°48' E 000°56'1110.5
2015-Jul-24 22:33N 39°43' E 000°44'1111.0
2015-Jul-24 21:33N 39°39' E 000°31'1211.6
2015-Jul-24 20:33N 39°35' E 000°17'1211.7
2015-Jul-24 19:33N 39°31' E 000°03'1111.4
2015-Jul-24 18:33N 39°27' W 000°11'6 6.3
2015-Jul-24 17:33N 39°26' W 000°19'0 0.0
2015-Jul-24 16:33N 39°26' W 000°19'0 0.0
2015-Jul-24 15:33N 39°26' W 000°19'0 0.0
2015-Jul-24 14:33N 39°26' W 000°19'0 0.0
2015-Jul-24 13:33N 39°26' W 000°19'0 0.0
2015-Jul-24 12:33N 39°26' W 000°19'0 0.0
2015-Jul-24 11:31N 39°26' W 000°19'0 0.3
2015-Jul-24 10:33N 39°26' W 000°19'0 0.1
2015-Jul-24 09:33N 39°26' W 000°19'0 0.0
2015-Jul-24 08:33N 39°26' W 000°19'0 0.0
2015-Jul-24 07:27N 39°26' W 000°19'0 0.0
2015-Jul-24 06:28N 39°26' W 000°19'0 0.0
2015-Jul-24 02:32N 39°26' W 000°19'0 0.0
2015-Jul-24 01:33N 39°26' W 000°19'0 0.0
2015-Jul-24 00:25N 39°26' W 000°19'0 0.0
2015-Jul-23 23:31N 39°26' W 000°19'0 0.0
2015-Jul-23 22:31N 39°26' W 000°19'0 0.0
2015-Jul-23 21:31N 39°26' W 000°19'0 0.0
2015-Jul-23 20:31N 39°26' W 000°19'0 0.0
2015-Jul-23 19:31N 39°26' W 000°19'0 0.0
2015-Jul-23 18:31N 39°26' W 000°19'0 0.0
2015-Jul-23 17:25N 39°26' W 000°19'0 0.0
2015-Jul-23 16:31N 39°26' W 000°19'0 0.0
2015-Jul-23 15:22N 39°26' W 000°19'0 0.0
2015-Jul-23 14:33N 39°26' W 000°19'0 0.0
2015-Jul-23 13:33N 39°26' W 000°19'0 0.0
2015-Jul-23 12:32N 39°26' W 000°19'0 0.0
2015-Jul-23 11:30N 39°26' W 000°19'0 0.0
2015-Jul-23 10:33N 39°26' W 000°19'0 0.0
2015-Jul-23 09:32N 39°26' W 000°19'0 0.0
2015-Jul-23 08:32N 39°26' W 000°19'0 0.0
2015-Jul-23 07:26N 39°26' W 000°19'0 0.0
2015-Jul-23 06:32N 39°26' W 000°19'0 0.0
2015-Jul-23 05:24N 39°26' W 000°19'0 0.0
2015-Jul-23 04:32N 39°26' W 000°19'3 3.3
2015-Jul-23 03:33N 39°24' W 000°17'0 0.3
2015-Jul-23 02:33N 39°23' W 000°17'0 0.2
2015-Jul-23 01:31N 39°23' W 000°17'0 0.1
2015-Jul-23 00:31N 39°23' W 000°17'0 0.1
2015-Jul-22 23:31N 39°23' W 000°17'0 0.1
2015-Jul-22 22:31N 39°23' W 000°17'0 0.0
2015-Jul-22 21:31N 39°23' W 000°17'0 0.0
2015-Jul-22 20:31N 39°23' W 000°17'0 0.1
2015-Jul-22 19:28N 39°23' W 000°17'2 1.7
2015-Jul-22 18:27N 39°23' W 000°15'4012.5
2015-Jul-22 15:15N 38°52' E 000°18'1013.0
2015-Jul-22 14:29N 38°44' E 000°25'1212.3
2015-Jul-22 13:33N 38°33' E 000°24'1313.2
2015-Jul-22 12:33N 38°20' E 000°20'1312.7
2015-Jul-22 11:33N 38°08' E 000°16'1312.6
2015-Jul-22 10:31N 37°55' E 000°12'1212.7
2015-Jul-22 09:33N 37°43' E 000°08'2912.4
2015-Jul-22 07:13N 37°15' W 000°02'912.5
2015-Jul-22 06:31N 37°07' W 000°04'1212.5
2015-Jul-22 05:33N 36°55' W 000°08'1312.6
2015-Jul-22 04:33N 36°43' W 000°12'1313.0
2015-Jul-22 03:33N 36°30' W 000°16'1712.8
2015-Jul-22 02:15N 36°14' W 000°21'913.5
2015-Jul-22 01:33N 36°05' W 000°24'1413.2
2015-Jul-22 00:30N 35°53' W 000°33'10 5.1
2015-Jul-21 22:30N 35°43' W 000°37'1 0.4
2015-Jul-21 20:17N 35°43' W 000°38'0 0.0
2015-Jul-21 19:29N 35°43' W 000°38'0 0.0
2015-Jul-21 18:29N 35°43' W 000°38'0 0.0
2015-Jul-21 17:29N 35°43' W 000°38'0 0.0
2015-Jul-21 16:17N 35°43' W 000°38'0 0.0
2015-Jul-21 15:31N 35°43' W 000°38'0 0.0
2015-Jul-21 14:29N 35°43' W 000°38'0 0.0
2015-Jul-21 13:29N 35°43' W 000°38'0 0.0
2015-Jul-21 12:29N 35°43' W 000°38'0 0.0
2015-Jul-21 11:31N 35°43' W 000°38'0 0.0
2015-Jul-21 10:25N 35°43' W 000°38'0 0.0
2015-Jul-21 08:13N 35°43' W 000°38'0 0.0
2015-Jul-21 07:29N 35°43' W 000°38'0 0.0
2015-Jul-21 05:31N 35°43' W 000°38'0 0.0
2015-Jul-20 17:05N 35°43' W 000°38'0 0.0
2015-Jul-20 15:11N 35°43' W 000°38'0 0.0
2015-Jul-20 14:23N 35°43' W 000°38'0 0.0
2015-Jul-20 13:22N 35°43' W 000°38'0 0.0
2015-Jul-20 12:28N 35°43' W 000°38'0 0.0
2015-Jul-20 11:28N 35°43' W 000°38'0 0.0
2015-Jul-20 10:23N 35°43' W 000°38'0 0.0
2015-Jul-20 09:23N 35°43' W 000°38'0 0.0
2015-Jul-20 08:29N 35°43' W 000°38'0 0.0
2015-Jul-20 07:13N 35°43' W 000°38'0 0.0
2015-Jul-19 21:10N 35°43' W 000°38'0 0.0
2015-Jul-19 20:25N 35°43' W 000°38'0 0.0
2015-Jul-19 19:29N 35°43' W 000°38'0 0.0
2015-Jul-19 17:23N 35°43' W 000°38'0 0.0
2015-Jul-19 16:23N 35°43' W 000°38'0 0.0
2015-Jul-19 15:29N 35°43' W 000°38'0 0.0
2015-Jul-19 14:31N 35°43' W 000°38'0 0.0
2015-Jul-19 13:23N 35°43' W 000°38'0 0.0
2015-Jul-19 12:29N 35°43' W 000°38'0 0.0
2015-Jul-19 11:28N 35°43' W 000°38'0 0.0
2015-Jul-19 10:25N 35°43' W 000°38'0 0.0
2015-Jul-19 08:11N 35°43' W 000°38'0 0.0
2015-Jul-19 07:11N 35°43' W 000°38'0 0.0
2015-Jul-19 06:23N 35°43' W 000°38'0 0.0
2015-Jul-19 05:29N 35°43' W 000°38'0 0.0
2015-Jul-19 00:17N 35°43' W 000°38'0 0.0
2015-Jul-18 18:33N 35°43' W 000°38'0 0.0
2015-Jul-18 10:14N 35°43' W 000°38'0 0.0
2015-Jul-18 08:32N 35°43' W 000°38'0 0.0
2015-Jul-18 07:20N 35°43' W 000°38'0 0.0
2015-Jul-18 06:32N 35°43' W 000°38'0 0.0
2015-Jul-18 04:20N 35°43' W 000°38'0 0.0
2015-Jul-18 03:31N 35°43' W 000°38'0 0.0
2015-Jul-18 00:07N 35°43' W 000°38'0 0.0
2015-Jul-17 21:31N 35°43' W 000°38'0 0.0
2015-Jul-17 19:23N 35°43' W 000°38'0 0.0
2015-Jul-17 18:31N 35°43' W 000°38'0 0.0
2015-Jul-17 16:31N 35°43' W 000°38'0 0.0
2015-Jul-17 15:28N 35°43' W 000°38'0 0.0
2015-Jul-17 14:22N 35°43' W 000°38'0 0.0
2015-Jul-17 13:31N 35°43' W 000°38'0 0.0
2015-Jul-17 12:28N 35°43' W 000°38'0 0.0
2015-Jul-17 11:31N 35°43' W 000°38'0 0.0
2015-Jul-16 14:31N 35°43' W 000°38'0 0.0
2015-Jul-16 13:13N 35°43' W 000°38'0 0.0
2015-Jul-16 12:31N 35°43' W 000°38'0 0.0
2015-Jul-16 08:21N 35°43' W 000°38'0 0.0
2015-Jul-16 06:29N 35°43' W 000°38'0 0.0
2015-Jul-16 05:29N 35°43' W 000°38'0 0.0
2015-Jul-16 04:11N 35°43' W 000°38'0 0.0
2015-Jul-16 03:28N 35°43' W 000°38'0 0.0
2015-Jul-16 02:22N 35°43' W 000°38'  

Dump ship's entire track history